createdAt,value
2018-09-01T00:02:20.529Z,6.10
2018-09-01T00:04:49.030Z,5.77
2018-09-01T00:07:17.578Z,13.13
2018-09-01T00:09:46.329Z,6.83
2018-09-01T00:12:15.205Z,10.13
2018-09-01T00:14:43.682Z,6.00
2018-09-01T00:17:31.058Z,6.93
2018-09-01T00:20:01.408Z,3.90
2018-09-01T00:22:30.558Z,6.00
2018-09-01T00:24:59.046Z,5.57
2018-09-01T00:27:28.601Z,4.20
2018-09-01T00:29:57.106Z,8.60
2018-09-01T00:32:25.829Z,5.30
2018-09-01T00:34:54.316Z,18.60
2018-09-01T00:37:28.248Z,6.20
2018-09-01T00:39:56.718Z,10.40
2018-09-01T00:42:25.227Z,5.70
2018-09-01T00:44:53.879Z,11.60
2018-09-01T00:47:22.366Z,6.40
2018-09-01T00:49:51.803Z,5.10
2018-09-01T00:52:20.377Z,10.87
2018-09-01T00:54:48.969Z,4.87
2018-09-01T00:57:17.464Z,2.53
2018-09-01T00:59:46.146Z,5.93
2018-09-01T01:02:14.760Z,13.13
2018-09-01T01:04:43.282Z,8.07
2018-09-01T01:07:13.623Z,3.87
2018-09-01T01:09:42.631Z,10.50
2018-09-01T01:12:11.142Z,5.80
2018-09-01T01:14:39.863Z,7.37
2018-09-01T01:17:10.442Z,4.73
2018-09-01T01:19:39.964Z,9.60
2018-09-01T01:22:08.460Z,8.70
2018-09-01T01:24:36.924Z,7.63
2018-09-01T01:27:05.475Z,5.00
2018-09-01T01:29:33.960Z,6.13
2018-09-01T01:32:02.532Z,7.43
2018-09-01T01:34:31.024Z,7.33
2018-09-01T01:36:59.614Z,7.20
2018-09-01T01:39:28.107Z,5.83
2018-09-01T01:41:56.672Z,8.20
2018-09-01T01:44:25.239Z,7.60
2018-09-01T01:46:53.750Z,11.97
2018-09-01T01:49:22.241Z,6.73
2018-09-01T01:51:50.770Z,7.30
2018-09-01T01:54:19.286Z,8.63
2018-09-01T01:56:47.758Z,6.50
2018-09-01T01:59:16.283Z,5.93
2018-09-01T02:01:44.754Z,5.77
2018-09-01T02:04:13.257Z,9.77
2018-09-01T02:06:41.750Z,5.20
2018-09-01T02:09:10.254Z,5.40
2018-09-01T02:11:38.735Z,15.67
2018-09-01T02:14:07.307Z,7.80
2018-09-01T02:16:35.763Z,7.10
2018-09-01T02:19:04.280Z,7.47
2018-09-01T02:21:32.760Z,8.33
2018-09-01T02:24:01.258Z,9.47
2018-09-01T02:26:29.747Z,9.00
2018-09-01T02:28:58.430Z,7.90
2018-09-01T02:31:27.007Z,6.50
2018-09-01T02:33:55.523Z,7.83
2018-09-01T02:36:24.103Z,3.23
2018-09-01T02:38:52.705Z,11.77
2018-09-01T02:41:21.186Z,4.57
2018-09-01T02:43:49.707Z,9.20
2018-09-01T02:46:18.189Z,8.30
2018-09-01T02:48:46.942Z,3.17
2018-09-01T02:51:15.402Z,5.43
2018-09-01T02:53:43.951Z,6.20
2018-09-01T02:56:12.475Z,4.30
2018-09-01T02:58:40.952Z,5.40
2018-09-01T03:01:14.625Z,10.20
2018-09-01T03:03:43.079Z,6.23
2018-09-01T03:06:11.590Z,4.33
2018-09-01T03:08:40.070Z,8.47
2018-09-01T03:11:08.622Z,4.53
2018-09-01T03:13:37.738Z,9.43
2018-09-01T03:16:06.311Z,7.43
2018-09-01T03:18:34.794Z,7.43
2018-09-01T03:21:03.314Z,7.67
2018-09-01T03:23:31.784Z,6.33
2018-09-01T03:26:00.313Z,7.53
2018-09-01T03:28:28.834Z,6.00
2018-09-01T03:30:57.429Z,3.43
2018-09-01T03:33:26.001Z,10.93
2018-09-01T03:35:54.572Z,12.20
2018-09-01T03:38:23.225Z,6.63
2018-09-01T03:40:51.743Z,4.77
2018-09-01T03:43:20.223Z,6.97
2018-09-01T03:45:48.743Z,7.80
2018-09-01T03:48:17.283Z,13.77
2018-09-01T03:50:45.767Z,7.13
2018-09-01T03:53:14.330Z,5.90
2018-09-01T03:55:42.834Z,6.37
2018-09-01T03:58:11.383Z,5.17
2018-09-01T04:00:39.907Z,5.50
2018-09-01T04:03:08.454Z,11.23
2018-09-01T04:05:36.923Z,7.40
2018-09-01T04:08:05.826Z,8.97
2018-09-01T04:10:34.306Z,6.67
2018-09-01T04:13:04.140Z,12.17
2018-09-01T04:15:32.655Z,5.90
2018-09-01T04:18:01.185Z,13.10
2018-09-01T04:20:29.671Z,7.53
2018-09-01T04:22:58.190Z,10.90
2018-09-01T04:25:26.669Z,6.93
2018-09-01T04:27:55.169Z,10.30
2018-09-01T04:30:23.644Z,7.83
2018-09-01T04:32:52.432Z,6.80
2018-09-01T04:35:20.930Z,6.40
2018-09-01T04:37:49.498Z,10.00
2018-09-01T04:40:18.125Z,4.40
2018-09-01T04:42:46.664Z,13.03
2018-09-01T04:45:15.154Z,5.93
2018-09-01T04:47:43.786Z,6.93
2018-09-01T04:50:12.306Z,6.10
2018-09-01T04:52:40.848Z,8.03
2018-09-01T04:55:09.483Z,9.80
2018-09-01T04:57:38.040Z,9.90
2018-09-01T05:00:06.570Z,5.93
2018-09-01T05:02:35.135Z,10.70
2018-09-01T05:05:04.590Z,7.23
2018-09-01T05:07:33.117Z,7.27
2018-09-01T05:10:01.607Z,11.30
2018-09-01T05:12:30.431Z,9.70
2018-09-01T05:14:59.030Z,11.90
2018-09-01T05:17:27.558Z,10.20
2018-09-01T05:19:56.072Z,13.50
2018-09-01T05:22:24.597Z,7.80
2018-09-01T05:24:53.137Z,6.83
2018-09-01T05:27:21.638Z,4.63
2018-09-01T05:29:50.139Z,10.20
2018-09-01T05:32:18.836Z,5.37
2018-09-01T05:34:47.466Z,7.90
2018-09-01T05:37:16.175Z,8.10
2018-09-01T05:39:44.899Z,11.37
2018-09-01T05:42:13.581Z,6.20
2018-09-01T05:44:42.079Z,10.60
2018-09-01T05:47:10.635Z,10.53
2018-09-01T05:49:39.135Z,6.73
2018-09-01T05:52:08.020Z,9.50
2018-09-01T05:54:36.564Z,7.07
2018-09-01T05:57:05.127Z,11.80
2018-09-01T05:59:33.606Z,12.27
2018-09-01T06:02:02.766Z,10.57
2018-09-01T06:04:31.411Z,14.60
2018-09-01T06:07:00.108Z,10.37
2018-09-01T06:09:28.606Z,8.73
2018-09-01T06:11:57.166Z,10.70
2018-09-01T06:14:26.089Z,6.07
2018-09-01T06:16:54.613Z,22.70
2018-09-01T06:19:23.255Z,8.20
2018-09-01T06:21:51.713Z,14.90
2018-09-01T06:24:20.186Z,12.30
2018-09-01T06:26:48.862Z,7.93
2018-09-01T06:29:18.946Z,9.60
2018-09-01T06:31:50.943Z,8.83
2018-09-01T06:34:20.031Z,9.33
2018-09-01T06:36:48.721Z,13.17
2018-09-01T06:39:17.245Z,12.60
2018-09-01T06:41:45.795Z,8.13
2018-09-01T06:44:15.027Z,10.03
2018-09-01T06:46:44.377Z,15.13
2018-09-01T06:49:12.979Z,6.07
2018-09-01T06:51:41.575Z,6.23
2018-09-01T06:54:10.667Z,8.67
2018-09-01T06:56:39.382Z,14.60
2018-09-01T06:59:08.061Z,18.33
2018-09-01T07:01:36.610Z,9.87
2018-09-01T07:04:05.121Z,15.33
2018-09-01T07:06:33.707Z,12.77
2018-09-01T07:09:02.339Z,8.47
2018-09-01T07:11:30.932Z,10.23
2018-09-01T07:13:59.650Z,11.47
2018-09-01T07:16:28.183Z,10.63
2018-09-01T07:18:56.964Z,10.40
2018-09-01T07:21:25.483Z,8.33
2018-09-01T07:23:53.984Z,13.23
2018-09-01T07:26:22.568Z,7.77
2018-09-01T07:28:51.228Z,10.97
2018-09-01T07:31:20.289Z,12.87
2018-09-01T07:33:48.574Z,8.83
2018-09-01T07:36:17.207Z,6.03
2018-09-01T07:38:45.783Z,19.40
2018-09-01T07:41:14.738Z,10.50
2018-09-01T07:43:43.315Z,10.27
2018-09-01T07:46:11.890Z,10.40
2018-09-01T07:48:40.636Z,17.60
2018-09-01T07:51:09.893Z,7.80
2018-09-01T07:53:38.613Z,19.90
2018-09-01T07:56:07.641Z,14.43
2018-09-01T07:58:37.189Z,11.97
2018-09-01T08:01:06.024Z,15.90
2018-09-01T08:03:34.486Z,7.30
2018-09-01T08:06:03.506Z,13.20
2018-09-01T08:08:32.028Z,12.33
2018-09-01T08:11:00.570Z,11.50
2018-09-01T08:13:29.051Z,12.87
2018-09-01T08:15:57.598Z,9.20
2018-09-01T08:18:26.187Z,13.73
2018-09-01T08:20:54.712Z,16.97
2018-09-01T08:23:23.266Z,10.50
2018-09-01T08:25:52.080Z,7.53
2018-09-01T08:28:20.674Z,10.97
2018-09-01T08:30:49.441Z,8.20
2018-09-01T08:33:18.215Z,11.20
2018-09-01T08:35:47.040Z,10.57
2018-09-01T08:38:15.562Z,9.03
2018-09-01T08:40:44.102Z,8.70
2018-09-01T08:43:13.402Z,18.40
2018-09-01T08:45:41.951Z,8.87
2018-09-01T08:48:10.497Z,7.87
2018-09-01T08:50:39.090Z,12.20
2018-09-01T08:53:12.269Z,9.50
2018-09-01T08:55:41.207Z,9.43
2018-09-01T08:58:09.728Z,9.00
2018-09-01T09:00:38.756Z,14.40
2018-09-01T09:03:07.271Z,12.93
2018-09-01T09:05:38.932Z,20.23
2018-09-01T09:08:07.636Z,7.80
2018-09-01T09:10:36.196Z,5.10
2018-09-01T09:13:05.389Z,8.90
2018-09-01T09:15:33.919Z,17.03
2018-09-01T09:18:02.627Z,10.97
2018-09-01T09:20:31.147Z,11.73
2018-09-01T09:22:59.721Z,6.27
2018-09-01T09:25:28.238Z,13.63
2018-09-01T09:27:56.722Z,13.90
2018-09-01T09:30:25.458Z,8.57
2018-09-01T09:32:54.238Z,11.70
2018-09-01T09:35:22.755Z,7.50
2018-09-01T09:37:51.234Z,8.77
2018-09-01T09:40:20.012Z,9.47
2018-09-01T09:42:48.529Z,8.53
2018-09-01T09:45:17.691Z,10.67
2018-09-01T09:47:46.190Z,15.53
2018-09-01T09:50:14.732Z,9.00
2018-09-01T09:52:43.193Z,11.97
2018-09-01T09:55:11.705Z,8.50
2018-09-01T09:57:40.291Z,7.13
2018-09-01T10:00:09.957Z,6.90
2018-09-01T10:02:38.653Z,8.23
2018-09-01T10:05:07.820Z,6.90
2018-09-01T10:07:36.319Z,12.37
2018-09-01T10:10:05.145Z,5.60
2018-09-01T10:12:33.683Z,14.50
2018-09-01T10:15:02.243Z,10.00
2018-09-01T10:17:30.785Z,4.00
2018-09-01T10:19:59.394Z,5.87
2018-09-01T10:22:27.890Z,8.93
2018-09-01T10:24:56.860Z,12.93
2018-09-01T10:27:25.331Z,9.20
2018-09-01T10:29:53.881Z,6.60
2018-09-01T10:32:23.212Z,12.03
2018-09-01T10:34:51.872Z,14.93
2018-09-01T10:37:23.311Z,13.77
2018-09-01T10:39:51.878Z,5.73
2018-09-01T10:42:20.571Z,16.53
2018-09-01T10:44:49.159Z,7.83
2018-09-01T10:47:17.680Z,12.53
2018-09-01T10:49:49.464Z,11.63
2018-09-01T10:52:18.431Z,6.23
2018-09-01T10:54:47.451Z,9.63
2018-09-01T10:57:16.329Z,10.67
2018-09-01T10:59:44.930Z,13.03
2018-09-01T11:02:13.462Z,7.83
2018-09-01T11:04:41.978Z,9.40
2018-09-01T11:07:10.514Z,12.50
2018-09-01T11:09:39.055Z,9.10
2018-09-01T11:12:07.781Z,17.40
2018-09-01T11:14:36.302Z,20.13
2018-09-01T11:17:05.278Z,9.47
2018-09-01T11:19:34.201Z,5.80
2018-09-01T11:22:02.815Z,10.43
2018-09-01T11:24:31.314Z,10.10
2018-09-01T11:27:00.105Z,18.03
2018-09-01T11:29:29.228Z,11.27
2018-09-01T11:31:57.979Z,8.10
2018-09-01T11:34:26.892Z,7.60
2018-09-01T11:36:55.513Z,6.47
2018-09-01T11:39:23.992Z,7.07
2018-09-01T11:41:54.983Z,11.07
2018-09-01T11:44:23.492Z,6.37
2018-09-01T11:46:52.180Z,14.23
2018-09-01T11:49:21.390Z,10.80
2018-09-01T11:51:50.003Z,10.03
2018-09-01T11:54:18.973Z,9.43
2018-09-01T11:56:47.510Z,14.07
2018-09-01T11:59:16.055Z,9.53
2018-09-01T12:01:45.307Z,12.73
2018-09-01T12:04:13.808Z,5.60
2018-09-01T12:06:42.823Z,11.50
2018-09-01T12:09:11.651Z,8.50
2018-09-01T12:11:40.037Z,9.80
2018-09-01T12:14:08.659Z,9.93
2018-09-01T12:16:37.182Z,5.63
2018-09-01T12:19:06.084Z,8.30
2018-09-01T12:21:34.672Z,11.77
2018-09-01T12:24:03.411Z,11.80
2018-09-01T12:26:32.287Z,7.83
2018-09-01T12:29:00.798Z,9.60
2018-09-01T12:31:29.303Z,7.87
2018-09-01T12:33:58.954Z,5.63
2018-09-01T12:36:27.446Z,4.30
2018-09-01T12:38:56.014Z,7.77
2018-09-01T12:41:24.716Z,11.00
2018-09-01T12:43:53.282Z,7.83
2018-09-01T12:46:22.456Z,9.93
2018-09-01T12:48:51.091Z,7.70
2018-09-01T12:51:19.600Z,7.03
2018-09-01T12:53:48.173Z,8.80
2018-09-01T12:56:16.687Z,12.70
2018-09-01T12:58:45.241Z,6.80
2018-09-01T13:01:13.773Z,9.17
2018-09-01T13:03:42.309Z,14.93
2018-09-01T13:06:11.763Z,10.20
2018-09-01T13:08:40.902Z,7.43
2018-09-01T13:11:09.899Z,10.23
2018-09-01T13:13:38.565Z,13.40
2018-09-01T13:16:07.866Z,9.80
2018-09-01T13:18:36.879Z,11.47
2018-09-01T13:21:05.882Z,13.20
2018-09-01T13:23:34.430Z,10.60
2018-09-01T13:26:03.476Z,8.83
2018-09-01T13:28:32.006Z,14.30
2018-09-01T13:31:00.580Z,10.30
2018-09-01T13:33:29.283Z,12.50
2018-09-01T13:35:57.860Z,6.97
2018-09-01T13:38:26.491Z,12.63
2018-09-01T13:40:55.576Z,6.73
2018-09-01T13:43:24.409Z,11.80
2018-09-01T13:45:53.011Z,10.50
2018-09-01T13:48:21.593Z,6.20
2018-09-01T13:50:50.998Z,9.17
2018-09-01T13:53:19.542Z,7.43
2018-09-01T13:55:48.038Z,11.80
2018-09-01T13:58:16.585Z,8.67
2018-09-01T14:00:45.082Z,7.30
2018-09-01T14:03:13.608Z,15.27
2018-09-01T14:05:42.208Z,6.33
2018-09-01T14:08:10.772Z,10.77
2018-09-01T14:10:39.677Z,8.93
2018-09-01T14:13:08.847Z,12.60
2018-09-01T14:15:37.698Z,21.63
2018-09-01T14:18:06.446Z,12.17
2018-09-01T14:20:35.083Z,11.53
2018-09-01T14:23:03.602Z,8.50
2018-09-01T14:25:32.193Z,7.97
2018-09-01T14:28:02.148Z,14.23
2018-09-01T14:30:31.278Z,7.83
2018-09-01T14:33:00.031Z,11.20
2018-09-01T14:35:28.578Z,7.83
2018-09-01T14:37:57.110Z,13.83
2018-09-01T14:40:25.915Z,10.40
2018-09-01T14:42:54.731Z,10.30
2018-09-01T14:45:23.379Z,9.03
2018-09-01T14:47:52.200Z,13.27
2018-09-01T14:50:22.038Z,10.67
2018-09-01T14:52:50.574Z,8.43
2018-09-01T14:55:19.099Z,7.60
2018-09-01T14:57:47.578Z,12.83
2018-09-01T15:00:16.254Z,14.73
2018-09-01T15:02:44.750Z,9.47
2018-09-01T15:05:13.383Z,7.20
2018-09-01T15:07:41.902Z,14.27
2018-09-01T15:10:10.568Z,51.90
2018-09-01T15:12:39.139Z,13.50
2018-09-01T15:15:08.127Z,11.07
2018-09-01T15:17:36.662Z,12.50
2018-09-01T15:20:05.786Z,10.63
2018-09-01T15:22:34.521Z,9.87
2018-09-01T15:25:03.173Z,15.30
2018-09-01T15:27:32.519Z,13.23
2018-09-01T15:30:01.073Z,11.20
2018-09-01T15:32:30.023Z,6.40
2018-09-01T15:34:58.665Z,16.40
2018-09-01T15:37:27.236Z,7.80
2018-09-01T15:39:56.446Z,8.47
2018-09-01T15:42:26.335Z,12.13
2018-09-01T15:44:55.122Z,13.17
2018-09-01T15:47:23.641Z,17.23
2018-09-01T15:49:53.566Z,12.83
2018-09-01T15:52:22.081Z,20.37
2018-09-01T15:54:50.794Z,12.40
2018-09-01T15:57:19.508Z,13.73
2018-09-01T15:59:48.047Z,11.93
2018-09-01T16:02:16.555Z,18.03
2018-09-01T16:04:45.130Z,15.17
2018-09-01T16:07:13.949Z,14.50
2018-09-01T16:09:42.537Z,17.60
2018-09-01T16:12:11.050Z,21.00
2018-09-01T16:14:39.709Z,19.13
2018-09-01T16:17:08.269Z,27.27
2018-09-01T16:19:37.273Z,16.33
2018-09-01T16:22:05.906Z,17.60
2018-09-01T16:24:34.642Z,19.60
2018-09-01T16:27:03.689Z,17.57
2018-09-01T16:29:32.428Z,9.97
2018-09-01T16:32:01.837Z,16.77
2018-09-01T16:34:30.963Z,13.63
2018-09-01T16:36:59.566Z,13.70
2018-09-01T16:39:28.425Z,12.20
2018-09-01T16:41:57.176Z,15.60
2018-09-01T16:44:25.814Z,20.07
2018-09-01T16:46:54.584Z,19.90
2018-09-01T16:49:23.141Z,17.87
2018-09-01T16:51:52.263Z,18.50
2018-09-01T16:54:20.828Z,20.40
2018-09-01T16:56:49.380Z,12.70
2018-09-01T16:59:17.926Z,11.50
2018-09-01T17:01:46.772Z,11.57
2018-09-01T17:04:15.330Z,13.47
2018-09-01T17:06:43.843Z,15.70
2018-09-01T17:09:12.432Z,14.37
2018-09-01T17:11:40.980Z,16.47
2018-09-01T17:14:09.558Z,16.77
2018-09-01T17:16:38.184Z,9.37
2018-09-01T17:19:07.060Z,9.20
2018-09-01T17:21:35.602Z,12.93
2018-09-01T17:24:04.465Z,14.80
2018-09-01T17:26:32.973Z,10.00
2018-09-01T17:29:01.998Z,12.87
2018-09-01T17:31:30.936Z,17.83
2018-09-01T17:34:01.649Z,13.63
2018-09-01T17:36:31.109Z,16.87
2018-09-01T17:38:59.837Z,15.90
2018-09-01T17:41:28.618Z,10.07
2018-09-01T17:43:57.414Z,13.03
2018-09-01T17:46:26.227Z,11.10
2018-09-01T17:48:54.787Z,10.67
2018-09-01T17:51:23.395Z,20.47
2018-09-01T17:53:52.540Z,18.80
2018-09-01T17:56:21.350Z,10.10
2018-09-01T17:58:49.971Z,11.77
2018-09-01T18:01:19.929Z,9.97
2018-09-01T18:03:48.614Z,7.43
2018-09-01T18:06:17.182Z,15.83
2018-09-01T18:08:45.722Z,7.00
2018-09-01T18:11:14.371Z,25.57
2018-09-01T18:13:43.021Z,9.00
2018-09-01T18:16:11.635Z,7.90
2018-09-01T18:18:40.192Z,8.43
2018-09-01T18:21:08.821Z,9.90
2018-09-01T18:23:37.383Z,9.33
2018-09-01T18:26:05.895Z,13.77
2018-09-01T18:28:35.385Z,19.00
2018-09-01T18:31:05.357Z,11.50
2018-09-01T18:33:34.334Z,9.70
2018-09-01T18:36:02.978Z,20.80
2018-09-01T18:38:32.127Z,9.90
2018-09-01T18:41:00.683Z,10.30
2018-09-01T18:43:29.447Z,11.47
2018-09-01T18:45:58.245Z,14.00
2018-09-01T18:48:26.809Z,11.93
2018-09-01T18:50:55.461Z,16.20
2018-09-01T18:53:24.070Z,13.30
2018-09-01T18:55:52.620Z,14.33
2018-09-01T18:58:21.561Z,13.17
2018-09-01T19:00:50.302Z,13.93
2018-09-01T19:03:19.037Z,16.23
2018-09-01T19:05:47.650Z,11.77
2018-09-01T19:08:16.403Z,14.30
2018-09-01T19:10:44.912Z,10.60
2018-09-01T19:13:14.001Z,13.60
2018-09-01T19:15:42.591Z,15.83
2018-09-01T19:18:11.151Z,12.20
2018-09-01T19:20:39.706Z,13.27
2018-09-01T19:23:08.247Z,11.60
2018-09-01T19:25:36.775Z,18.13
2018-09-01T19:28:05.688Z,14.10
2018-09-01T19:30:34.210Z,12.07
2018-09-01T19:33:02.930Z,16.73
2018-09-01T19:35:32.203Z,15.83
2018-09-01T19:38:00.983Z,15.23
2018-09-01T19:40:29.543Z,18.80
2018-09-01T19:42:58.745Z,17.27
2018-09-01T19:45:27.455Z,18.50
2018-09-01T19:47:56.018Z,13.73
2018-09-01T19:50:24.568Z,18.13
2018-09-01T19:52:53.192Z,15.80
2018-09-01T19:55:22.132Z,16.33
2018-09-01T19:57:50.738Z,11.80
2018-09-01T20:00:19.353Z,14.73
2018-09-01T20:02:48.696Z,14.40
2018-09-01T20:05:17.290Z,14.70
2018-09-01T20:07:45.770Z,15.53
2018-09-01T20:10:15.409Z,14.17
2018-09-01T20:12:43.964Z,21.03
2018-09-01T20:15:12.681Z,19.63
2018-09-01T20:17:41.252Z,17.53
2018-09-01T20:20:10.370Z,20.87
2018-09-01T20:22:39.242Z,16.53
2018-09-01T20:25:07.785Z,18.70
2018-09-01T20:27:36.340Z,22.67
2018-09-01T20:30:05.522Z,19.93
2018-09-01T20:32:34.413Z,23.13
2018-09-01T20:35:08.791Z,24.50
2018-09-01T20:37:37.895Z,23.07
2018-09-01T20:40:07.431Z,21.53
2018-09-01T20:42:36.057Z,24.13
2018-09-01T20:45:05.041Z,20.53
2018-09-01T20:47:33.998Z,16.17
2018-09-01T20:50:02.537Z,18.50
2018-09-01T20:52:31.774Z,21.17
2018-09-01T20:55:00.401Z,22.40
2018-09-01T20:57:28.995Z,18.33
2018-09-01T20:59:57.630Z,28.70
2018-09-01T21:02:26.196Z,15.93
2018-09-01T21:04:54.805Z,24.57
2018-09-01T21:07:23.286Z,16.13
2018-09-01T21:09:52.192Z,20.60
2018-09-01T21:12:20.981Z,18.17
2018-09-01T21:14:51.623Z,19.50
2018-09-01T21:17:20.125Z,17.00
2018-09-01T21:19:49.329Z,16.20
2018-09-01T21:22:17.859Z,20.73
2018-09-01T21:24:46.460Z,22.30
2018-09-01T21:27:15.324Z,21.83
2018-09-01T21:29:44.227Z,18.27
2018-09-01T21:32:12.738Z,21.53
2018-09-01T21:34:41.557Z,29.50
2018-09-01T21:37:10.069Z,19.43
2018-09-01T21:39:38.591Z,20.07
2018-09-01T21:42:07.103Z,23.30
2018-09-01T21:44:35.866Z,23.57
2018-09-01T21:47:04.704Z,19.50
2018-09-01T21:49:33.248Z,25.57
2018-09-01T21:52:01.958Z,19.30
2018-09-01T21:54:30.586Z,22.60
2018-09-01T21:56:59.095Z,21.50
2018-09-01T21:59:27.682Z,34.00
2018-09-01T22:02:01.520Z,25.20
2018-09-01T22:04:34.262Z,17.37
2018-09-01T22:07:02.777Z,23.50
2018-09-01T22:09:31.350Z,21.90
2018-09-01T22:11:59.874Z,26.67
2018-09-01T22:14:28.391Z,29.33
2018-09-01T22:16:56.927Z,21.07
2018-09-01T22:19:25.436Z,19.77
2018-09-01T22:21:54.128Z,20.60
2018-09-01T22:24:22.655Z,18.13
2018-09-01T22:26:51.163Z,20.77
2018-09-01T22:29:19.783Z,20.30
2018-09-01T22:31:48.358Z,17.43
2018-09-01T22:34:16.926Z,18.23
2018-09-01T22:36:45.523Z,22.97
2018-09-01T22:39:14.110Z,20.73
2018-09-01T22:41:42.693Z,23.87
2018-09-01T22:44:11.200Z,21.93
2018-09-01T22:46:39.681Z,19.97
2018-09-01T22:49:08.232Z,24.03
2018-09-01T22:51:36.755Z,18.93
2018-09-01T22:54:05.396Z,32.80
2018-09-01T22:56:33.944Z,28.63
2018-09-01T22:59:02.531Z,23.60
2018-09-01T23:01:31.366Z,18.60
2018-09-01T23:03:59.896Z,20.40
2018-09-01T23:06:28.569Z,16.47
2018-09-01T23:08:57.071Z,21.93
2018-09-01T23:11:25.754Z,17.77
2018-09-01T23:13:54.778Z,18.50
2018-09-01T23:16:23.993Z,22.70
2018-09-01T23:18:52.548Z,19.30
2018-09-01T23:21:21.170Z,20.20
2018-09-01T23:23:49.891Z,18.83
2018-09-01T23:26:18.401Z,17.30
2018-09-01T23:28:47.515Z,20.83
2018-09-01T23:31:16.346Z,22.90
2018-09-01T23:33:44.874Z,20.83
2018-09-01T23:36:13.355Z,16.43
2018-09-01T23:38:41.894Z,26.63
2018-09-01T23:41:10.534Z,23.00
2018-09-01T23:43:39.037Z,22.53
2018-09-01T23:46:07.858Z,19.07
2018-09-01T23:48:36.475Z,17.20
2018-09-01T23:51:06.069Z,22.50
2018-09-01T23:53:34.666Z,18.00
2018-09-01T23:56:03.324Z,23.80
2018-09-01T23:58:31.877Z,28.17
